createdAt,value
2019-03-26T00:00:52.933Z,96637.05
2019-03-26T00:03:25.234Z,96638.95
2019-03-26T00:05:57.529Z,96637.20
2019-03-26T00:08:29.842Z,96633.73
2019-03-26T00:11:02.138Z,96630.38
2019-03-26T00:13:36.980Z,96635.94
2019-03-26T00:16:09.388Z,96630.20
2019-03-26T00:18:41.615Z,96627.62
2019-03-26T00:21:14.996Z,96634.88
2019-03-26T00:23:47.799Z,96633.89
2019-03-26T00:26:20.593Z,96622.52
2019-03-26T00:28:52.885Z,96622.74
2019-03-26T00:31:25.190Z,96623.27
2019-03-26T00:33:57.548Z,96628.22
2019-03-26T00:36:30.601Z,96630.68
2019-03-26T00:39:02.953Z,96633.19
2019-03-26T00:41:35.299Z,96639.05
2019-03-26T00:44:08.205Z,96631.20
2019-03-26T00:46:41.431Z,96629.19
2019-03-26T00:49:15.623Z,96632.63
2019-03-26T00:51:47.842Z,96624.31
2019-03-26T00:54:20.233Z,96624.05
2019-03-26T00:56:53.655Z,96628.36
2019-03-26T00:59:26.109Z,96621.06
2019-03-26T01:01:58.294Z,96619.82
2019-03-26T01:04:33.285Z,96624.16
2019-03-26T01:07:07.172Z,96625.80
2019-03-26T01:09:40.138Z,96622.70
2019-03-26T01:12:13.752Z,96622.77
2019-03-26T01:14:46.506Z,96623.17
2019-03-26T01:17:20.824Z,96621.62
2019-03-26T01:19:54.055Z,96617.48
2019-03-26T01:22:27.646Z,96610.94
2019-03-26T01:25:00.321Z,96612.48
2019-03-26T01:27:34.563Z,96615.41
2019-03-26T01:30:06.928Z,96620.84
2019-03-26T01:32:39.203Z,96617.81
2019-03-26T01:35:11.670Z,96614.53
2019-03-26T01:37:44.881Z,96612.98
2019-03-26T01:40:17.202Z,96609.92
2019-03-26T01:42:49.815Z,96611.85
2019-03-26T01:45:22.115Z,96613.62
2019-03-26T01:47:54.540Z,96616.69
2019-03-26T01:50:26.771Z,96614.76
2019-03-26T01:52:58.976Z,96615.21
2019-03-26T01:55:31.422Z,96619.89
2019-03-26T01:58:03.662Z,96619.89
2019-03-26T02:00:36.871Z,96622.63
2019-03-26T02:03:10.144Z,96618.09
2019-03-26T02:05:42.487Z,96621.52
2019-03-26T02:08:15.361Z,96624.48
2019-03-26T02:10:49.487Z,96618.36
2019-03-26T02:13:22.191Z,96614.19
2019-03-26T02:15:54.535Z,96617.20
2019-03-26T02:18:26.716Z,96620.33
2019-03-26T02:20:58.900Z,96619.42
2019-03-26T02:23:32.253Z,96622.79
2019-03-26T02:26:05.055Z,96624.02
2019-03-26T02:28:37.248Z,96625.46
2019-03-26T02:31:09.496Z,96623.91
2019-03-26T02:33:43.321Z,96618.32
2019-03-26T02:36:16.069Z,96620.73
2019-03-26T02:38:51.390Z,96622.46
2019-03-26T02:41:24.031Z,96619.46
2019-03-26T02:43:56.468Z,96621.17
2019-03-26T02:46:28.870Z,96624.39
2019-03-26T02:49:01.812Z,96625.12
2019-03-26T02:51:34.196Z,96620.58
2019-03-26T02:54:06.716Z,96621.19
2019-03-26T02:56:39.018Z,96633.84
2019-03-26T02:59:11.246Z,96623.76
2019-03-26T03:01:43.642Z,96632.63
2019-03-26T03:04:15.803Z,96632.45
2019-03-26T03:06:48.214Z,96633.63
2019-03-26T03:09:21.611Z,96632.16
2019-03-26T03:11:54.000Z,96640.04
2019-03-26T03:14:27.889Z,96641.45
2019-03-26T03:17:00.572Z,96636.53
2019-03-26T03:19:34.674Z,96644.11
2019-03-26T03:22:07.003Z,96649.77
2019-03-26T03:24:39.310Z,96649.27
2019-03-26T03:27:12.877Z,96652.39
2019-03-26T03:29:45.130Z,96653.94
2019-03-26T03:32:17.309Z,96657.69
2019-03-26T03:34:49.943Z,96664.45
2019-03-26T03:37:22.172Z,96668.41
2019-03-26T03:39:54.551Z,96673.25
2019-03-26T03:42:26.669Z,96675.09
2019-03-26T03:44:58.981Z,96674.53
2019-03-26T03:47:34.873Z,96676.00
2019-03-26T03:50:07.482Z,96675.92
2019-03-26T03:52:43.340Z,96689.64
2019-03-26T03:55:15.545Z,96692.83
2019-03-26T03:57:52.582Z,96679.48
2019-03-26T04:00:39.101Z,96672.51
2019-03-26T04:03:12.068Z,96680.93
2019-03-26T04:05:44.789Z,96681.44
2019-03-26T04:08:17.141Z,96683.20
2019-03-26T04:10:49.434Z,96685.11
2019-03-26T04:13:21.703Z,96687.66
2019-03-26T04:15:56.616Z,96688.31
2019-03-26T04:18:28.981Z,96687.95
2019-03-26T04:21:01.259Z,96692.27
2019-03-26T04:23:33.689Z,96684.16
2019-03-26T04:26:05.852Z,96692.41
2019-03-26T04:28:38.127Z,96695.47
2019-03-26T04:31:11.422Z,96700.39
2019-03-26T04:33:44.994Z,96688.59
2019-03-26T04:36:25.316Z,96712.41
2019-03-26T04:38:52.201Z,96704.85
2019-03-26T04:41:25.243Z,96709.58
2019-03-26T04:44:02.706Z,96702.31
2019-03-26T04:46:35.832Z,96707.22
2019-03-26T04:49:09.781Z,96718.83
2019-03-26T04:51:48.277Z,96719.23
2019-03-26T04:54:20.646Z,96723.81
2019-03-26T04:56:53.271Z,96721.61
2019-03-26T04:59:25.577Z,96724.59
2019-03-26T05:02:00.477Z,96721.67
2019-03-26T05:04:33.061Z,96724.77
2019-03-26T05:07:06.226Z,96729.86
2019-03-26T05:09:40.234Z,96726.80
2019-03-26T05:12:12.473Z,96733.97
2019-03-26T05:14:44.800Z,96740.53
2019-03-26T05:17:17.866Z,96742.13
2019-03-26T05:19:55.337Z,96743.84
2019-03-26T05:22:29.026Z,96748.16
2019-03-26T05:25:01.875Z,96762.52
2019-03-26T05:27:44.804Z,96756.92
2019-03-26T05:30:09.585Z,96764.83
2019-03-26T05:32:43.323Z,96770.06
2019-03-26T05:35:15.764Z,96764.56
2019-03-26T05:37:48.387Z,96764.10
2019-03-26T05:40:24.453Z,96764.34
2019-03-26T05:43:00.237Z,96769.06
2019-03-26T05:45:36.266Z,96765.89
2019-03-26T05:48:09.718Z,96766.97
2019-03-26T05:50:44.370Z,96775.33
2019-03-26T05:53:16.633Z,96777.20
2019-03-26T05:55:50.247Z,96787.03
2019-03-26T05:58:26.909Z,96784.44
2019-03-26T06:01:01.805Z,96785.61
2019-03-26T06:03:34.267Z,96787.48
2019-03-26T06:06:08.506Z,96784.51
2019-03-26T06:08:41.625Z,96785.08
2019-03-26T06:11:14.621Z,96791.84
2019-03-26T06:13:46.856Z,96797.15
2019-03-26T06:16:22.756Z,96794.27
2019-03-26T06:18:55.172Z,96796.58
2019-03-26T06:21:27.581Z,96807.31
2019-03-26T06:24:00.833Z,96812.39
2019-03-26T06:26:33.281Z,96816.05
2019-03-26T06:29:06.306Z,96812.53
2019-03-26T06:31:40.615Z,96816.14
2019-03-26T06:34:13.564Z,96814.11
2019-03-26T06:36:46.113Z,96819.50
2019-03-26T06:39:20.011Z,96819.92
2019-03-26T06:41:54.791Z,96833.34
2019-03-26T06:44:27.633Z,96826.70
2019-03-26T06:47:01.916Z,96833.28
2019-03-26T06:49:35.529Z,96844.23
2019-03-26T06:52:09.860Z,96844.23
2019-03-26T06:54:47.143Z,96851.76
2019-03-26T06:57:20.202Z,96859.33
2019-03-26T06:59:53.777Z,96859.33
2019-03-26T07:02:27.473Z,96865.11
2019-03-26T07:05:01.228Z,96861.83
2019-03-26T07:07:33.748Z,96866.34
2019-03-26T07:10:06.829Z,96866.45
2019-03-26T07:12:39.188Z,96874.11
2019-03-26T07:15:13.077Z,96880.22
2019-03-26T07:17:45.498Z,96881.97
2019-03-26T07:20:18.246Z,96885.39
2019-03-26T07:22:54.338Z,96886.98
2019-03-26T07:25:28.351Z,96890.38
2019-03-26T07:28:07.698Z,96898.05
2019-03-26T07:30:47.018Z,96892.55
2019-03-26T07:33:19.249Z,96895.20
2019-03-26T07:35:56.693Z,96893.38
2019-03-26T07:38:29.165Z,96894.47
2019-03-26T07:41:02.626Z,96894.02
2019-03-26T07:43:34.949Z,96897.45
2019-03-26T07:46:08.630Z,96903.17
2019-03-26T07:48:41.901Z,96897.64
2019-03-26T07:51:14.136Z,96908.48
2019-03-26T07:53:47.687Z,96907.92
2019-03-26T07:56:21.272Z,96912.26
2019-03-26T07:58:55.419Z,96914.68
2019-03-26T08:01:29.111Z,96911.39
2019-03-26T08:04:02.793Z,96912.69
2019-03-26T08:06:35.185Z,96910.17
2019-03-26T08:09:10.977Z,96914.04
2019-03-26T08:11:45.458Z,96910.54
2019-03-26T08:14:17.817Z,96913.47
2019-03-26T08:16:51.412Z,96919.22
2019-03-26T08:19:23.769Z,96918.20
2019-03-26T08:21:55.912Z,96916.92
2019-03-26T08:24:27.996Z,96923.05
2019-03-26T08:27:00.807Z,96912.09
2019-03-26T08:29:33.193Z,96917.38
2019-03-26T08:32:05.919Z,96914.61
2019-03-26T08:34:38.492Z,96920.87
2019-03-26T08:37:10.882Z,96928.81
2019-03-26T08:39:45.823Z,96933.09
2019-03-26T08:42:19.738Z,96934.40
2019-03-26T08:44:53.218Z,96938.49
2019-03-26T08:47:25.557Z,96942.90
2019-03-26T08:49:58.224Z,96942.58
2019-03-26T08:52:30.550Z,96953.88
2019-03-26T08:55:05.329Z,96958.79
2019-03-26T08:57:37.598Z,96952.73
2019-03-26T09:00:11.901Z,96965.47
2019-03-26T09:02:46.076Z,96959.45
2019-03-26T09:05:21.023Z,96957.31
2019-03-26T09:07:55.629Z,96958.44
2019-03-26T09:10:28.773Z,96972.02
2019-03-26T09:13:03.155Z,96967.92
2019-03-26T09:15:40.289Z,96969.41
2019-03-26T09:18:16.253Z,96972.72
2019-03-26T09:20:51.850Z,96971.73
2019-03-26T09:23:24.186Z,96979.20
2019-03-26T09:25:57.696Z,96983.17
2019-03-26T09:28:32.266Z,96982.66
2019-03-26T09:31:04.556Z,96987.45
2019-03-26T09:33:39.084Z,96988.39
2019-03-26T09:36:14.274Z,96991.67
2019-03-26T09:38:46.445Z,96986.45
2019-03-26T09:41:18.798Z,96996.57
2019-03-26T09:43:51.028Z,97004.74
2019-03-26T09:46:23.907Z,96996.91
2019-03-26T09:48:56.307Z,97003.56
2019-03-26T09:51:29.811Z,97003.09
2019-03-26T09:54:04.136Z,96992.77
2019-03-26T09:56:39.889Z,96986.62
2019-03-26T09:59:12.521Z,97001.83
2019-03-26T10:01:44.963Z,96999.28
2019-03-26T10:04:18.257Z,97004.38
2019-03-26T10:06:51.863Z,97008.16
2019-03-26T10:09:24.149Z,97005.16
2019-03-26T10:11:56.419Z,97006.73
2019-03-26T10:14:31.616Z,97004.89
2019-03-26T10:17:05.247Z,97013.13
2019-03-26T10:19:39.220Z,97008.60
2019-03-26T10:22:12.067Z,97015.40
2019-03-26T10:24:46.683Z,97017.98
2019-03-26T10:27:18.868Z,97020.55
2019-03-26T10:29:51.121Z,97019.82
2019-03-26T10:32:23.517Z,97020.46
2019-03-26T10:34:55.834Z,97019.78
2019-03-26T10:37:29.119Z,97025.30
2019-03-26T10:40:02.574Z,97028.98
2019-03-26T10:42:34.932Z,97032.97
2019-03-26T10:45:08.201Z,97036.20
2019-03-26T10:47:41.764Z,97033.68
2019-03-26T10:50:14.166Z,97030.64
2019-03-26T10:52:46.457Z,97033.80
2019-03-26T10:55:19.295Z,97036.12
2019-03-26T11:01:01.634Z,97023.98
2019-03-26T11:03:33.959Z,97022.80
2019-03-26T11:06:06.353Z,97029.55
2019-03-26T11:08:38.574Z,97020.52
2019-03-26T11:11:10.831Z,97030.67
2019-03-26T11:13:45.981Z,97027.03
2019-03-26T11:16:18.307Z,97029.40
2019-03-26T11:18:50.742Z,97026.64
2019-03-26T11:21:23.218Z,97026.84
2019-03-26T11:23:58.073Z,97027.33
2019-03-26T11:26:31.963Z,97030.61
2019-03-26T11:29:06.183Z,97034.22
2019-03-26T11:31:38.577Z,97036.20
2019-03-26T11:34:10.993Z,97033.23
2019-03-26T11:36:43.320Z,97027.80
2019-03-26T11:39:15.618Z,97032.97
2019-03-26T11:41:47.944Z,97027.56
2019-03-26T11:44:21.104Z,97025.16
2019-03-26T11:46:53.448Z,97020.90
2019-03-26T11:49:27.116Z,97024.81
2019-03-26T11:51:59.425Z,97024.14
2019-03-26T11:54:31.852Z,97027.53
2019-03-26T11:57:04.159Z,97030.97
2019-03-26T11:59:36.561Z,97027.30
2019-03-26T12:02:10.676Z,97029.37
2019-03-26T12:04:42.836Z,97025.92
2019-03-26T12:07:15.087Z,97034.80
2019-03-26T12:09:47.215Z,97038.32
2019-03-26T12:12:19.554Z,97045.97
2019-03-26T12:14:52.008Z,97042.16
2019-03-26T12:17:24.277Z,97048.55
2019-03-26T12:19:56.556Z,97051.34
2019-03-26T12:22:31.342Z,97062.08
2019-03-26T12:25:03.348Z,97066.58
2019-03-26T12:27:39.523Z,97070.05
2019-03-26T12:30:12.271Z,97080.73
2019-03-26T12:32:45.363Z,97078.29
2019-03-26T12:35:29.341Z,97072.41
2019-03-26T12:38:23.532Z,97078.39
2019-03-26T12:40:56.615Z,97089.44
2019-03-26T12:43:28.944Z,97087.69
2019-03-26T12:46:01.983Z,97088.28
2019-03-26T12:48:34.563Z,97092.54
2019-03-26T12:51:06.933Z,97093.18
2019-03-26T12:53:39.014Z,97092.95
2019-03-26T12:56:11.172Z,97093.13
2019-03-26T12:58:44.249Z,97092.48
2019-03-26T13:01:17.732Z,97093.95
2019-03-26T13:03:49.903Z,97103.33
2019-03-26T13:06:25.151Z,97113.44
2019-03-26T13:08:57.394Z,97109.58
2019-03-26T13:11:29.716Z,97108.69
2019-03-26T13:14:03.243Z,97114.20
2019-03-26T13:16:36.882Z,97110.69
2019-03-26T13:19:11.066Z,97120.14
2019-03-26T13:21:43.809Z,97119.53
2019-03-26T13:24:16.587Z,97117.27
2019-03-26T13:26:49.270Z,97121.84
2019-03-26T13:29:25.825Z,97131.77
2019-03-26T13:31:58.370Z,97118.77
2019-03-26T13:34:30.806Z,97127.11
2019-03-26T13:37:04.455Z,97134.48
2019-03-26T13:39:36.898Z,97139.06
2019-03-26T13:42:12.159Z,97136.47
2019-03-26T13:44:44.467Z,97143.91
2019-03-26T13:47:17.078Z,97151.61
2019-03-26T13:49:51.540Z,97149.84
2019-03-26T13:52:24.334Z,97144.13
2019-03-26T13:54:58.360Z,97156.78
2019-03-26T13:57:30.815Z,97162.71
2019-03-26T14:00:03.075Z,97155.53
2019-03-26T14:02:35.984Z,97158.67
2019-03-26T14:05:12.752Z,97152.58
2019-03-26T14:07:48.134Z,97165.55
2019-03-26T14:10:20.621Z,97173.56
2019-03-26T14:12:53.143Z,97173.66
2019-03-26T14:15:26.153Z,97184.87
2019-03-26T14:17:59.666Z,97189.60
2019-03-26T14:20:33.189Z,97196.89
2019-03-26T14:23:06.450Z,97195.97
2019-03-26T14:25:40.115Z,97196.53
2019-03-26T14:28:13.650Z,97207.24
2019-03-26T14:30:47.742Z,97205.35
2019-03-26T14:33:20.196Z,97205.59
2019-03-26T14:35:52.344Z,97206.41
2019-03-26T14:38:24.723Z,97204.66
2019-03-26T14:40:57.191Z,97205.97
2019-03-26T14:43:30.290Z,97207.36
2019-03-26T14:46:02.954Z,97208.41
2019-03-26T14:48:35.381Z,97203.55
2019-03-26T14:51:11.879Z,97205.91
2019-03-26T14:53:44.711Z,97214.97
2019-03-26T14:56:17.337Z,97221.31
2019-03-26T14:58:51.348Z,97223.66
2019-03-26T15:01:24.906Z,97225.88
2019-03-26T15:03:57.266Z,97227.72
2019-03-26T15:06:29.681Z,97244.33
2019-03-26T15:09:02.556Z,97236.64
2019-03-26T15:11:36.051Z,97251.97
2019-03-26T15:14:09.158Z,97246.58
2019-03-26T15:16:44.508Z,97253.84
2019-03-26T15:19:16.886Z,97249.16
2019-03-26T15:21:49.352Z,97261.12
2019-03-26T15:24:21.780Z,97251.52
2019-03-26T15:26:54.286Z,97258.64
2019-03-26T15:29:26.659Z,97270.94
2019-03-26T15:31:59.435Z,97270.94
2019-03-26T15:34:36.353Z,97276.31
2019-03-26T15:37:06.024Z,97276.46
2019-03-26T15:39:39.121Z,97276.69
2019-03-26T15:42:11.969Z,97275.86
2019-03-26T15:44:44.935Z,97276.55
2019-03-26T15:47:17.879Z,97284.02
2019-03-26T15:49:54.591Z,97289.16
2019-03-26T15:52:27.929Z,97286.17
2019-03-26T15:55:01.671Z,97289.19
2019-03-26T15:57:34.589Z,97293.45
2019-03-26T16:00:08.590Z,97294.34
2019-03-26T16:02:41.186Z,97299.91
2019-03-26T16:05:14.059Z,97310.20
2019-03-26T16:07:47.108Z,97299.05
2019-03-26T16:10:19.496Z,97308.50
2019-03-26T16:12:51.959Z,97301.71
2019-03-26T16:15:25.137Z,97303.28
2019-03-26T16:17:57.282Z,97311.75
2019-03-26T16:20:29.774Z,97308.49
2019-03-26T16:23:02.098Z,97306.10
2019-03-26T16:25:35.461Z,97288.75
2019-03-26T16:28:10.009Z,97303.37
2019-03-26T16:30:45.155Z,97306.33
2019-03-26T16:33:17.429Z,97312.70
2019-03-26T16:35:51.047Z,97308.03
2019-03-26T16:38:23.422Z,97315.09
2019-03-26T16:40:55.727Z,97318.86
2019-03-26T16:43:28.347Z,97325.00
2019-03-26T16:46:00.716Z,97331.45
2019-03-26T16:48:33.118Z,97331.05
2019-03-26T16:51:06.834Z,97327.39
2019-03-26T16:53:39.214Z,97331.48
2019-03-26T16:56:11.740Z,97338.00
2019-03-26T16:58:43.929Z,97335.80
2019-03-26T17:01:16.338Z,97320.45
2019-03-26T17:03:48.658Z,97343.59
2019-03-26T17:06:21.089Z,97349.50
2019-03-26T17:08:53.610Z,97354.44
2019-03-26T17:11:25.896Z,97355.19
2019-03-26T17:13:59.137Z,97359.33
2019-03-26T17:16:31.964Z,97362.03
2019-03-26T17:19:04.306Z,97375.66
2019-03-26T17:21:36.547Z,97378.13
2019-03-26T17:24:08.935Z,97381.67
2019-03-26T17:26:42.587Z,97391.47
2019-03-26T17:29:14.877Z,97400.67
2019-03-26T17:31:47.105Z,97404.91
2019-03-26T17:34:19.504Z,97408.69
2019-03-26T17:36:52.065Z,97409.73
2019-03-26T17:39:24.540Z,97410.84
2019-03-26T17:41:56.765Z,97412.50
2019-03-26T17:44:29.733Z,97422.98
2019-03-26T17:47:02.088Z,97425.73
2019-03-26T17:49:34.955Z,97425.73
2019-03-26T17:52:08.248Z,97428.52
2019-03-26T17:54:41.700Z,97420.98
2019-03-26T17:57:16.777Z,97417.27
2019-03-26T17:59:49.150Z,97433.66
2019-03-26T18:02:21.401Z,97430.16
2019-03-26T18:04:54.067Z,97434.20
2019-03-26T18:07:26.455Z,97433.19
2019-03-26T18:09:58.796Z,97442.20
2019-03-26T18:12:31.436Z,97437.32
2019-03-26T18:15:04.054Z,97446.33
2019-03-26T18:17:41.331Z,97445.05
2019-03-26T18:20:15.162Z,97451.14
2019-03-26T18:22:47.751Z,97452.61
2019-03-26T18:25:21.254Z,97454.62
2019-03-26T18:27:54.486Z,97458.11
2019-03-26T18:30:27.967Z,97460.88
2019-03-26T18:33:01.153Z,97459.64
2019-03-26T18:35:37.570Z,97459.35
2019-03-26T18:38:11.280Z,97459.71
2019-03-26T18:40:45.185Z,97461.70
2019-03-26T18:43:18.755Z,97459.06
2019-03-26T18:45:51.617Z,97458.76
2019-03-26T18:48:24.427Z,97468.55
2019-03-26T18:50:57.208Z,97468.17
2019-03-26T18:53:29.411Z,97471.77
2019-03-26T18:56:02.455Z,97469.46
2019-03-26T18:58:34.979Z,97473.86
2019-03-26T19:01:09.128Z,97481.27
2019-03-26T19:03:42.165Z,97474.83
2019-03-26T19:06:14.506Z,97475.16
2019-03-26T19:08:46.759Z,97475.32
2019-03-26T19:11:19.080Z,97481.34
2019-03-26T19:13:51.700Z,97478.61
2019-03-26T19:16:24.869Z,97483.11
2019-03-26T19:18:57.965Z,97482.81
2019-03-26T19:21:30.464Z,97486.74
2019-03-26T19:24:04.942Z,97495.20
2019-03-26T19:26:37.900Z,97495.66
2019-03-26T19:29:10.311Z,97496.43
2019-03-26T19:31:42.881Z,97500.47
2019-03-26T19:34:15.543Z,97507.09
2019-03-26T19:36:48.003Z,97504.56
2019-03-26T19:39:20.190Z,97510.90
2019-03-26T19:41:52.503Z,97453.86
2019-03-26T19:44:25.033Z,97509.72
2019-03-26T19:46:58.629Z,97513.72
2019-03-26T19:49:31.333Z,97509.41
2019-03-26T19:52:03.713Z,97502.28
2019-03-26T19:54:36.108Z,97504.72
2019-03-26T19:57:08.451Z,97498.66
2019-03-26T19:59:41.320Z,97495.86
2019-03-26T20:02:13.853Z,97497.95
2019-03-26T20:04:46.055Z,97502.65
2019-03-26T20:07:18.301Z,97502.55
2019-03-26T20:09:51.829Z,97500.14
2019-03-26T20:12:24.987Z,97503.88
2019-03-26T20:14:57.712Z,97501.75
2019-03-26T20:17:29.915Z,97501.99
2019-03-26T20:20:03.416Z,97507.34
2019-03-26T20:22:37.006Z,97516.45
2019-03-26T20:25:10.976Z,97509.34
2019-03-26T20:27:43.367Z,97509.91
2019-03-26T20:30:17.275Z,97506.80
2019-03-26T20:32:50.245Z,97509.09
2019-03-26T20:35:24.287Z,97511.19
2019-03-26T20:37:56.477Z,97498.91
2019-03-26T20:40:29.361Z,97506.34
2019-03-26T20:43:03.103Z,97511.94
2019-03-26T20:45:36.313Z,97506.52
2019-03-26T20:48:08.714Z,97510.30
2019-03-26T20:50:42.075Z,97513.40
2019-03-26T20:53:18.416Z,97512.98
2019-03-26T20:55:54.482Z,97513.61
2019-03-26T20:58:30.307Z,97523.44
2019-03-26T21:01:02.859Z,97528.17
2019-03-26T21:03:35.134Z,97524.80
2019-03-26T21:06:07.433Z,97525.39
2019-03-26T21:08:39.768Z,97520.42
2019-03-26T21:11:12.786Z,97513.08
2019-03-26T21:13:50.711Z,97523.35
2019-03-26T21:16:19.482Z,97518.77
2019-03-26T21:18:51.901Z,97517.36
2019-03-26T21:21:24.155Z,97522.86
2019-03-26T21:23:56.303Z,97520.52
2019-03-26T21:26:28.570Z,97525.91
2019-03-26T21:29:00.859Z,97523.61
2019-03-26T21:31:34.327Z,97531.17
2019-03-26T21:34:06.494Z,97528.60
2019-03-26T21:36:38.653Z,97536.50
2019-03-26T21:39:11.555Z,97533.50
2019-03-26T21:41:44.189Z,97532.21
2019-03-26T21:44:17.625Z,97536.38
2019-03-26T21:46:49.739Z,97533.87
2019-03-26T21:49:21.855Z,97541.35
2019-03-26T21:51:54.006Z,97538.86
2019-03-26T21:54:26.268Z,97531.92
2019-03-26T21:56:58.457Z,97531.69
2019-03-26T21:59:30.648Z,97533.50
2019-03-26T22:02:03.453Z,97529.27
2019-03-26T22:04:35.802Z,97526.86
2019-03-26T22:07:08.044Z,97529.48
2019-03-26T22:09:40.965Z,97536.73
2019-03-26T22:12:13.225Z,97536.14
2019-03-26T22:14:46.501Z,97528.73
2019-03-26T22:17:18.874Z,97541.17
2019-03-26T22:19:52.260Z,97539.72
2019-03-26T22:22:25.010Z,97539.45
2019-03-26T22:24:58.700Z,97536.38
2019-03-26T22:27:31.049Z,97537.20
2019-03-26T22:30:03.380Z,97535.91
2019-03-26T22:32:35.729Z,97542.06
2019-03-26T22:35:08.799Z,97545.02
2019-03-26T22:37:40.933Z,97546.83
2019-03-26T22:40:13.624Z,97557.55
2019-03-26T22:42:45.986Z,97557.45
2019-03-26T22:45:18.250Z,97557.95
2019-03-26T22:47:50.511Z,97563.84
2019-03-26T22:50:22.913Z,97557.58
2019-03-26T22:52:55.869Z,97568.69
2019-03-26T22:55:28.043Z,97564.08
2019-03-26T22:58:00.941Z,97567.48
2019-03-26T23:00:35.583Z,97563.84
2019-03-26T23:03:10.017Z,97564.90
2019-03-26T23:05:47.807Z,97556.20
2019-03-26T23:08:21.230Z,97555.67
2019-03-26T23:10:53.477Z,97555.84
2019-03-26T23:13:25.846Z,97560.00
2019-03-26T23:15:58.458Z,97562.94
2019-03-26T23:18:30.735Z,97561.86
2019-03-26T23:21:02.949Z,97557.20
2019-03-26T23:23:35.197Z,97557.95
2019-03-26T23:26:08.844Z,97558.62
2019-03-26T23:28:41.205Z,97553.05
2019-03-26T23:31:14.109Z,97558.75
2019-03-26T23:33:46.296Z,97556.35
2019-03-26T23:36:19.188Z,97561.44
2019-03-26T23:38:51.451Z,97555.95
2019-03-26T23:41:25.362Z,97551.38
2019-03-26T23:43:57.819Z,97554.02
2019-03-26T23:46:30.133Z,97558.70
2019-03-26T23:49:03.081Z,97558.87
2019-03-26T23:51:38.955Z,97557.73
2019-03-26T23:54:15.482Z,97565.14
2019-03-26T23:56:47.599Z,97566.71
2019-03-26T23:59:19.744Z,97571.33
